Sacramento International Airport
KSMF : rendu visible

Aérodrome :











RETROUVEZ-NOUS SUR...

 
LOGIN :

S'inscrire | Disclaimer

   EN    FR    IT 

 









Légende :    VFR   VFR Marginal   IFR   IFR Intensif   IFR Très Intensif
Visi : 
Plafond : 
>= 8 km
>= 3000ft
5 à 8 km
1000 à 3000 ft
1500m à 5 km
500 à 1000 ft
800 à 1500m
200 à 500 ft
< 800m
< 200 ft
Symboles :   Orages  Brouillard  Fortes neiges  Fortes précipitations  Vent > 20 kt






- Altitude de l'aérodrome : 27 ft
- Code IATA : SMF


KSMF - Sacramento International

DERNIER METAR :
  • 170953Z 00000KT 10SM CLR 08/07 A3010 RMK AO2 SLP193 T00780072 $

METARs EXPIRÉS :
  • 170853Z 00000KT 10SM CLR 09/08 A3011 RMK AO2 SLP194 T00940083 51001 $
  • 170753Z 00000KT 10SM CLR 09/07 A3011 RMK AO2 SLP194 T00890072 402060050 $

TAF KSMF
Valide du 17 à 06h jusqu'au 18 à 06h UTC


170520Z 1706/1806 VRB03KT P6SM FEW250
FM171200 18002KT 4SM BR SCT250
FM171300 15002KT 1/4SM FG SCT250
FM171800 34003KT P6SM SKC



MET'MAP, la Météo Aéronautique d'un coup d'oeil ! - Copyright ORBIFLY Décembre 2007 - Disclaimer

ORBIFLY MET'MAP TEAM :

Programmation & Développement : Alexandra Zaïnal
Conception & Développement : Baudouin d'Aumeries
Co-Programmation & Développement : Marc-Olivier Méhu
Soutien technique & logistique : Manuel Goepfert

Contact : metmap@orbifly.com




SOURCES & CREDITS :

   NOAA       Earth
Advisory